Airfield :
LOGIN :

Register | Disclaimer

   EN    FR    IT 

 










Legend :    VFR   Marginal VFR   IFR   Intensive IFR   Very Intensive IFR
Visi :
Ceiling :
>= 8 km
>= 3000ft
5 to 8 km
1000 to 3000 ft
1500m to 5 km
500 to 1000 ft
800 to 1500m
200 to 500 ft
< 800m
< 200 ft
Symbols :   Thunderstorms  Fog  Heavy snow  Heavy precipitations  Wind > 20 kt
SIGMETs :     Misc.  Thunderstorms  Icing  Turbulence  Mountain Waves  Volcanic Ashes






- Airport Elevation : 215 ft
- IATA code : ABZ


EGPD - Aberdeen / Dyce

CURRENT METAR :
  • 281720Z AUTO 21010KT 9999 NCD 08/05 Q0989 NOSIG

EXPIRED METARs :
  • 281650Z AUTO 20008KT 9999 NCD 08/05 Q0989 NOSIG
  • 281620Z AUTO 20008KT 9999 NCD 09/05 Q0989 NOSIG
  • 281550Z AUTO 20009KT 9999 NCD 09/05 Q0988
  • 281520Z AUTO 21010KT 9999 NCD 09/05 Q0988 NOSIG
  • 281450Z AUTO 22010KT 200V260 9999 FEW026 10/05 Q0988 NOSIG

TAF TAF EGPD
Valid from the 28 at 18:00 until the 29 at 18:00 UTC


281658Z 2818/2918 23009KT 9999 SCT030
PROB30
TEMPO 2818/2824 8000 -SHRA
PROB40
TEMPO 2900/2903 6000 SHRA
BECMG 2911/2914 16010KT
BECMG 2913/2916 BKN012
TEMPO 2913/2918 6000 -RA BKN008
PROB40
TEMPO 2915/2918 4000 RA BKN004



MET'MAP, your aeronautical weather chart ! - Copyright ORBIFLY December 2007 - Disclaimer

ORBIFLY MET'MAP TEAM :

Programming & Development : Alexandra Zaïnal
Concept & original design : Baudouin d'Aumeries
Assistance for programming : Marc-Olivier Méhu
Technical & hardware support : Manuel Goepfert

Contact : metmap@orbifly.com




SOURCES & CREDITS :

   NOAA